CheckWX is a tool to help pilots better visualize weather data.  It is not intended as a substitute for an official pre-flight weather briefing.

20:30:18 UTC

LFMV TAF
Avignon-Caumont Airport
Avignon/Caumont, France
TAF LFMV 221400Z 2215/2315 31010KT CAVOK BECMG 2220/2222 VRB03KT BECMG 2308/2310 35010KT

Mar-22@
15:00 UTC

Mar-22 @ 15:00 UTC

Mar-22@
20:00 UTC

Mar-22 @ 20:00 UTC

TAF LFMV 221400Z 2215/2315 31010KT CAVOK

Expired

Wind
  • 310° at 10 KTS
Conditions
No significant weather
Cloud Levels
  • No significant clouds

Mar-22@
20:00 UTC

Mar-22 @ 20:00 UTC

Mar-23@
08:00 UTC

Mar-23 @ 08:00 UTC

BECMG 2220/2222 VRB03KT

Becoming

Becoming Conditions expected by Fri, Mar 22, 2019 @ 22:00 UTC

Wind
  • Variable at 3 KTS
Conditions
No significant weather
Cloud Levels
  • No significant clouds

Mar-23@
08:00 UTC

Mar-23 @ 08:00 UTC

Mar-23@
15:00 UTC

Mar-23 @ 15:00 UTC

BECMG 2308/2310 35010KT

Becoming

Becoming Conditions expected by Sat, Mar 23, 2019 @ 10:00 UTC

Wind
  • 350° at 10 KTS
Conditions
No significant weather
Cloud Levels
  • No significant clouds